createdAt,value
2022-11-22T07:58:12.707Z,24.34
2022-11-22T08:08:19.062Z,24.55
2022-11-22T08:18:25.387Z,24.94
2022-11-22T08:28:32.095Z,25.16
2022-11-22T08:38:38.879Z,24.73
2022-11-22T08:48:45.491Z,25.34
2022-11-22T08:58:51.893Z,25.34
2022-11-22T09:09:22.182Z,25.33
2022-11-22T09:19:07.049Z,25.32
2022-11-22T09:29:14.202Z,25.34
2022-11-22T09:39:20.418Z,25.36
2022-11-22T09:49:32.848Z,25.36
2022-11-22T10:09:58.024Z,25.39
2022-11-22T10:20:07.917Z,25.36
2022-11-22T10:30:19.886Z,25.37
2022-11-22T10:40:29.465Z,25.35
2022-11-22T10:50:40.414Z,25.36
2022-11-22T11:00:46.841Z,25.35
2022-11-22T11:21:09.582Z,25.31
2022-11-22T11:31:18.056Z,25.19
2022-11-22T11:41:27.603Z,25.21
2022-11-22T11:51:39.253Z,24.81
2022-11-22T12:01:53.566Z,25.12
2022-11-22T12:12:16.172Z,25.08
2022-11-22T12:42:54.055Z,25.07
2022-11-22T12:48:23.629Z,25.07
2022-11-22T12:53:04.451Z,25.01
2022-11-22T13:03:14.573Z,25.01
2022-11-22T13:13:24.794Z,25.01
2022-11-22T13:23:41.885Z,25.04
2022-11-22T13:33:58.293Z,25.03
2022-11-22T13:44:28.232Z,24.97
2022-11-22T13:55:05.075Z,24.94
2022-11-22T14:05:20.781Z,24.92
2022-11-22T14:15:43.683Z,24.95
2022-11-22T14:26:08.721Z,24.95
2022-11-22T14:36:18.169Z,24.95
2022-11-22T14:46:51.754Z,24.95
2022-11-22T14:56:36.183Z,24.96
2022-11-22T15:57:54.979Z,24.95
2022-11-22T16:08:03.554Z,25.04
2022-11-22T16:18:15.647Z,25.13
2022-11-22T16:28:30.778Z,25.19
2022-11-22T16:38:37.317Z,25.30
2022-11-22T16:48:44.824Z,25.37
2022-11-22T16:58:53.144Z,25.34
2022-11-22T17:09:01.433Z,25.32
2022-11-22T17:19:14.574Z,25.31
2022-11-22T17:29:43.302Z,25.31
2022-11-22T17:39:26.294Z,25.29
2022-11-22T17:49:33.095Z,25.27
2022-11-22T17:59:40.990Z,25.27
2022-11-22T18:09:48.811Z,25.26
2022-11-22T18:19:54.978Z,25.30
2022-11-22T18:30:01.192Z,25.33
2022-11-22T18:40:10.507Z,25.33
2022-11-22T18:50:17.854Z,25.24
2022-11-22T19:00:24.709Z,25.24
2022-11-22T19:10:33.222Z,25.30
2022-11-22T19:20:54.525Z,25.37
